Time;durP1;ratioP1;P1;durP2;ratioP2;P2;SDS_P1;SDS_P2;PMS_P1;PMS_P2;Temp;Humidity;BMP_temperature;BMP_pressure;BME280_temperature;BME280_humidity;BME280_pressure;Samples;Min_cycle;Max_cycle;Signal;HPM_P1;HPM_P2
2021/09/14 00:02:01;;;;;;;5.30;4.53;;;19.60;78.50;;;;;;5046877;28;20042;-55
2021/09/14 00:04:27;;;;;;;5.75;4.40;;;19.60;78.60;;;;;;5027562;28;20037;-54
2021/09/14 00:06:53;;;;;;;10.07;4.55;;;19.60;78.60;;;;;;5047588;28;20037;-52
2021/09/14 00:09:19;;;;;;;4.90;4.20;;;19.60;78.50;;;;;;5007173;28;20076;-54
2021/09/14 00:11:45;;;;;;;10.10;5.05;;;19.60;78.70;;;;;;5046026;28;20037;-56
2021/09/14 00:14:11;;;;;;;6.18;4.55;;;19.60;78.80;;;;;;4991515;28;20072;-55
2021/09/14 00:16:36;;;;;;;5.47;4.63;;;19.60;78.80;;;;;;5023198;28;20103;-51
2021/09/14 00:19:02;;;;;;;8.52;4.63;;;19.60;78.70;;;;;;4985993;28;20037;-56
2021/09/14 00:21:30;;;;;;;7.47;4.65;;;19.60;78.80;;;;;;5035959;28;20040;-54
2021/09/14 00:23:56;;;;;;;7.07;5.05;;;19.60;78.70;;;;;;5066824;28;20028;-55
2021/09/14 00:26:22;;;;;;;10.45;5.70;;;19.60;78.90;;;;;;5070896;28;20089;-54
2021/09/14 00:28:51;;;;;;;6.85;4.22;;;19.60;78.90;;;;;;5067834;28;20452;-52
2021/09/14 00:31:16;;;;;;;5.55;4.45;;;19.60;78.80;;;;;;5064231;28;20048;-52
2021/09/14 00:33:44;;;;;;;5.45;3.97;;;19.60;78.90;;;;;;5061656;28;20460;-54
2021/09/14 00:36:10;;;;;;;7.57;4.28;;;19.50;79.00;;;;;;5063954;28;20052;-53
2021/09/14 00:38:36;;;;;;;11.90;4.47;;;19.50;79.20;;;;;;5057464;28;20086;-55
2021/09/14 00:41:05;;;;;;;6.18;4.90;;;19.50;79.50;;;;;;5030784;28;20044;-52
2021/09/14 00:43:30;;;;;;;6.35;4.90;;;19.50;79.50;;;;;;5019321;28;20032;-56
2021/09/14 00:45:56;;;;;;;5.45;4.55;;;19.50;79.60;;;;;;5033043;28;20044;-53
2021/09/14 00:48:22;;;;;;;7.03;4.93;;;19.50;79.90;;;;;;5029844;28;20471;-52
2021/09/14 00:50:48;;;;;;;5.18;4.38;;;19.40;79.90;;;;;;5027935;28;20067;-55
2021/09/14 00:53:14;;;;;;;5.82;4.20;;;19.40;80.00;;;;;;5071633;28;20028;-53
2021/09/14 00:55:40;;;;;;;6.90;4.93;;;19.40;79.90;;;;;;5067997;28;20033;-54
2021/09/14 00:58:06;;;;;;;5.97;4.57;;;19.40;79.90;;;;;;5067834;28;20031;-56
2021/09/14 01:00:32;;;;;;;6.35;4.57;;;19.40;79.80;;;;;;5062484;28;20032;-49
2021/09/14 01:02:59;;;;;;;7.72;4.90;;;19.40;79.90;;;;;;5070885;28;20361;-54
2021/09/14 01:05:25;;;;;;;5.55;4.43;;;19.40;79.80;;;;;;5065387;28;20419;-50
2021/09/14 01:07:52;;;;;;;5.57;4.47;;;19.40;79.80;;;;;;5028788;28;20151;-51
2021/09/14 01:10:18;;;;;;;8.15;4.70;;;19.40;80.00;;;;;;5063839;28;20114;-53
2021/09/14 01:12:46;;;;;;;6.03;4.28;;;19.40;80.00;;;;;;5058810;28;20064;-49
2021/09/14 01:15:11;;;;;;;5.50;4.32;;;19.40;80.10;;;;;;5062965;28;20029;-53
2021/09/14 01:17:37;;;;;;;10.35;5.30;;;19.50;80.10;;;;;;5064425;28;20365;-52
2021/09/14 01:20:03;;;;;;;7.93;4.70;;;19.50;80.10;;;;;;5060865;28;20031;-57
2021/09/14 01:22:30;;;;;;;7.35;4.45;;;19.40;80.10;;;;;;5010267;28;20044;-56
2021/09/14 01:24:57;;;;;;;9.43;5.22;;;19.40;80.20;;;;;;5060879;28;20056;-54
2021/09/14 01:27:22;;;;;;;9.27;5.80;;;19.50;80.20;;;;;;5068434;28;20069;-53
2021/09/14 01:32:32;;;;;;;8.98;4.88;;;19.50;80.20;;;;;;5008936;28;20555;-53
2021/09/14 01:35:14;;;;;;;7.82;4.97;;;19.50;80.20;;;;;;5012555;28;20136;-52
2021/09/14 01:37:40;;;;;;;9.48;5.32;;;19.50;80.20;;;;;;5064624;28;20033;-50
2021/09/14 01:40:07;;;;;;;6.45;5.00;;;19.50;80.30;;;;;;5035101;28;20036;-51
2021/09/14 01:42:33;;;;;;;11.77;5.30;;;19.40;80.60;;;;;;5048924;28;20041;-52
2021/09/14 01:44:59;;;;;;;6.93;5.30;;;19.30;80.60;;;;;;5069307;28;20031;-54
2021/09/14 01:47:25;;;;;;;12.75;5.13;;;19.30;80.60;;;;;;5068263;28;20021;-51
2021/09/14 01:49:51;;;;;;;10.75;5.70;;;19.30;80.70;;;;;;4978927;28;20041;-53
2021/09/14 01:52:17;;;;;;;10.85;6.20;;;19.30;80.70;;;;;;5043922;28;20021;-54
2021/09/14 01:54:43;;;;;;;10.85;6.00;;;19.30;80.90;;;;;;4972240;28;20037;-55
2021/09/14 01:57:09;;;;;;;7.22;5.85;;;19.30;81.00;;;;;;4999144;28;20037;-52
2021/09/14 01:59:39;;;;;;;7.53;5.88;;;19.10;82.00;;;;;;5063863;28;20369;-52
2021/09/14 02:02:14;;;;;;;11.45;7.15;;;18.80;82.80;;;;;;5061694;28;20024;-52
2021/09/14 02:59:38;;;;;;;11.73;7.88;;;18.80;84.20;;;;;;5006773;28;20045;-54
2021/09/14 03:02:05;;;;;;;13.18;8.90;;;18.80;84.20;;;;;;5010500;28;20037;-52
2021/09/14 03:04:31;;;;;;;14.63;7.95;;;18.80;84.30;;;;;;4961098;28;20448;-53
2021/09/14 03:06:58;;;;;;;13.45;8.35;;;18.80;84.80;;;;;;5012772;28;20041;-52
2021/09/14 03:09:23;;;;;;;11.60;8.43;;;18.60;85.40;;;;;;5013832;28;20474;-55
2021/09/14 03:11:49;;;;;;;11.13;8.27;;;18.50;85.90;;;;;;5010953;28;20033;-51
2021/09/14 03:14:15;;;;;;;11.98;8.05;;;18.30;86.10;;;;;;5014764;28;20025;-52
2021/09/14 03:16:41;;;;;;;12.90;8.95;;;18.40;85.90;;;;;;5011172;28;20039;-53
2021/09/14 03:19:07;;;;;;;14.00;9.80;;;18.40;86.30;;;;;;5012178;28;20339;-57
2021/09/14 03:21:33;;;;;;;12.23;8.90;;;18.30;86.80;;;;;;5011332;28;20569;-53
2021/09/14 03:23:59;;;;;;;12.98;9.45;;;18.20;87.30;;;;;;5054114;28;20061;-53
2021/09/14 03:26:25;;;;;;;13.02;9.05;;;18.20;87.00;;;;;;5067354;28;20029;-55
2021/09/14 03:28:51;;;;;;;15.90;9.65;;;18.30;86.90;;;;;;5061728;28;20063;-52
2021/09/14 03:31:17;;;;;;;11.55;8.57;;;18.40;86.60;;;;;;5063347;28;20031;-51
2021/09/14 03:33:47;;;;;;;12.90;9.10;;;18.40;86.50;;;;;;5066883;28;20074;-52
2021/09/14 03:36:18;;;;;;;14.52;8.27;;;18.50;86.40;;;;;;5073256;28;20064;-55
2021/09/14 03:38:44;;;;;;;11.63;7.93;;;18.50;86.30;;;;;;5063321;28;20033;-57
2021/09/14 03:41:10;;;;;;;13.50;8.05;;;18.40;86.40;;;;;;5033484;28;20369;-54
2021/09/14 03:43:36;;;;;;;11.02;7.32;;;18.30;87.00;;;;;;5070770;28;20082;-54
2021/09/14 03:46:02;;;;;;;15.95;7.57;;;18.00;87.90;;;;;;5065587;28;20037;-54
2021/09/14 03:48:28;;;;;;;11.45;8.65;;;17.80;88.60;;;;;;5072552;28;20060;-54
2021/09/14 03:50:54;;;;;;;14.50;7.35;;;17.70;89.00;;;;;;5029307;28;20040;-53
2021/09/14 03:53:19;;;;;;;10.98;7.00;;;17.60;89.60;;;;;;5065041;28;20031;-52
2021/09/14 03:55:45;;;;;;;10.35;7.68;;;17.50;90.10;;;;;;5065688;28;20032;-54
2021/09/14 03:58:11;;;;;;;11.82;7.28;;;17.50;90.40;;;;;;5028840;28;20125;-55
2021/09/14 04:00:37;;;;;;;10.88;7.13;;;17.50;90.20;;;;;;5069847;28;20037;-54
2021/09/14 04:06:23;;;;;;;9.32;7.93;;;17.50;90.40;;;;;;4988587;28;20070;-54
2021/09/14 04:08:51;;;;;;;15.75;9.68;;;17.60;90.40;;;;;;4987936;28;20122;-53
2021/09/14 04:11:17;;;;;;;12.38;8.40;;;17.60;90.30;;;;;;4972480;28;20038;-53
2021/09/14 04:13:43;;;;;;;11.77;7.85;;;17.70;90.30;;;;;;4952318;28;20512;-52
2021/09/14 04:16:09;;;;;;;10.63;7.90;;;17.80;90.20;;;;;;4991527;28;20042;-53
2021/09/14 04:18:34;;;;;;;10.77;7.50;;;17.90;90.20;;;;;;4989883;28;20421;-52
2021/09/14 04:21:00;;;;;;;10.63;6.70;;;18.00;90.10;;;;;;4942820;28;20042;-55
2021/09/14 04:23:26;;;;;;;13.20;7.30;;;18.10;90.00;;;;;;4990369;28;20133;-50
2021/09/14 04:25:52;;;;;;;10.38;7.03;;;18.20;89.30;;;;;;4989720;28;20030;-52
2021/09/14 04:28:17;;;;;;;10.48;6.82;;;18.20;89.00;;;;;;4986886;28;20363;-49
2021/09/14 04:30:43;;;;;;;14.88;6.80;;;18.20;88.80;;;;;;4992783;28;20470;-52
2021/09/14 04:33:09;;;;;;;12.48;6.97;;;18.30;88.60;;;;;;4988650;28;20375;-56
2021/09/14 04:35:35;;;;;;;7.65;6.28;;;18.30;88.60;;;;;;4986732;28;20057;-52
2021/09/14 04:38:03;;;;;;;10.73;6.78;;;18.40;88.70;;;;;;4986697;28;20026;-55
2021/09/14 04:40:29;;;;;;;9.40;6.20;;;18.30;88.80;;;;;;4993339;28;20093;-54
2021/09/14 04:42:55;;;;;;;11.95;6.63;;;18.20;89.20;;;;;;5022081;28;20036;-53
2021/09/14 04:45:21;;;;;;;11.23;6.70;;;18.10;89.70;;;;;;5012926;28;20110;-55
2021/09/14 04:47:46;;;;;;;13.95;6.78;;;18.00;90.00;;;;;;5059934;28;20025;-51
2021/09/14 04:50:12;;;;;;;10.93;6.95;;;18.20;90.00;;;;;;5063853;28;20127;-52
2021/09/14 04:52:38;;;;;;;10.40;5.88;;;18.30;89.80;;;;;;5071695;28;20032;-52
2021/09/14 04:55:05;;;;;;;9.88;6.13;;;18.30;89.60;;;;;;5071403;28;20100;-52
2021/09/14 04:57:31;;;;;;;11.50;6.45;;;18.30;89.90;;;;;;5016018;28;20051;-53
2021/09/14 04:59:57;;;;;;;9.43;6.05;;;18.30;90.00;;;;;;5016071;28;20036;-50
2021/09/14 05:02:23;;;;;;;14.73;6.18;;;18.20;90.10;;;;;;5031914;28;20032;-53
2021/09/14 05:04:49;;;;;;;18.92;7.72;;;18.30;90.10;;;;;;5037184;28;20032;-54
2021/09/14 05:07:14;;;;;;;10.30;6.22;;;18.40;90.10;;;;;;4997194;28;20033;-50
2021/09/14 05:09:40;;;;;;;8.85;6.22;;;18.50;90.00;;;;;;5068608;28;20061;-51
2021/09/14 05:12:06;;;;;;;10.93;5.97;;;18.60;89.90;;;;;;5062314;28;20040;-51
2021/09/14 05:14:32;;;;;;;13.30;5.97;;;18.70;89.40;;;;;;5015156;28;20040;-52
2021/09/14 05:16:57;;;;;;;11.38;5.95;;;18.80;89.30;;;;;;5023676;28;20045;-51
2021/09/14 05:19:34;;;;;;;12.15;5.70;;;18.90;89.30;;;;;;5073210;28;20032;-52
2021/09/14 05:22:01;;;;;;;11.40;6.78;;;18.80;89.40;;;;;;5036023;28;20033;-50
2021/09/14 05:24:27;;;;;;;7.45;5.90;;;18.90;89.90;;;;;;5035748;28;20573;-53
2021/09/14 05:26:54;;;;;;;7.60;5.60;;;18.90;89.60;;;;;;5043093;28;20068;-50
2021/09/14 05:29:20;;;;;;;9.80;6.45;;;19.00;89.50;;;;;;5049830;28;20028;-49
2021/09/14 05:31:46;;;;;;;9.10;5.95;;;19.10;89.30;;;;;;4998244;28;20044;-52
2021/09/14 05:34:13;;;;;;;12.05;5.93;;;19.20;88.90;;;;;;5023449;28;20080;-53
2021/09/14 05:36:40;;;;;;;8.23;6.15;;;19.30;89.00;;;;;;5048507;28;20104;-50
2021/09/14 05:39:06;;;;;;;6.97;5.57;;;19.40;88.70;;;;;;5011498;28;20033;-52
2021/09/14 05:41:31;;;;;;;12.15;6.40;;;19.50;88.40;;;;;;5043764;28;20031;-52
2021/09/14 05:43:57;;;;;;;9.45;6.18;;;19.60;88.20;;;;;;5048075;28;20361;-53
2021/09/14 05:46:25;;;;;;;16.02;7.10;;;19.60;88.10;;;;;;5048273;28;20071;-53
2021/09/14 05:48:50;;;;;;;15.63;6.35;;;19.70;88.00;;;;;;5043701;28;20045;-53
2021/09/14 05:51:17;;;;;;;12.40;6.65;;;19.80;87.90;;;;;;5028784;28;20032;-54
2021/09/14 05:53:42;;;;;;;9.10;5.78;;;19.90;88.20;;;;;;5044547;28;20520;-53
2021/09/14 05:56:08;;;;;;;9.63;5.97;;;19.80;88.10;;;;;;5024708;28;20136;-57
2021/09/14 05:58:34;;;;;;;9.98;5.40;;;19.90;88.20;;;;;;5023695;28;20044;-54
2021/09/14 06:01:00;;;;;;;13.75;6.47;;;19.90;88.10;;;;;;5031008;28;20037;-56
2021/09/14 06:03:28;;;;;;;12.52;7.35;;;20.00;88.10;;;;;;5044867;28;20553;-56
2021/09/14 06:05:54;;;;;;;10.57;6.13;;;20.20;87.90;;;;;;5044213;28;20029;-54
2021/09/14 06:08:20;;;;;;;9.30;5.20;;;20.40;87.20;;;;;;5029882;28;20037;-56
2021/09/14 06:10:46;;;;;;;7.75;5.78;;;20.50;86.50;;;;;;5050762;28;20058;-52
2021/09/14 06:13:11;;;;;;;9.07;5.80;;;20.70;86.60;;;;;;5033117;28;20115;-55
2021/09/14 06:15:37;;;;;;;10.88;4.32;;;20.80;85.30;;;;;;5040957;28;20365;-51
2021/09/14 06:18:03;;;;;;;9.75;5.82;;;20.90;84.80;;;;;;5041076;28;20045;-49
2021/09/14 06:20:29;;;;;;;6.38;5.40;;;21.10;85.30;;;;;;5038231;28;20029;-53
2021/09/14 06:22:55;;;;;;;13.43;5.88;;;21.20;84.60;;;;;;5054740;28;20084;-52
2021/09/14 06:25:20;;;;;;;7.80;5.68;;;21.40;84.00;;;;;;5043336;28;20032;-52
2021/09/14 06:27:46;;;;;;;15.13;6.22;;;21.50;83.40;;;;;;5059442;28;20346;-52
2021/09/14 06:30:12;;;;;;;8.55;5.97;;;21.70;83.20;;;;;;5063726;28;20464;-50
2021/09/14 06:32:38;;;;;;;8.25;5.25;;;21.80;82.30;;;;;;5064480;28;20032;-52
2021/09/14 06:35:04;;;;;;;11.60;6.22;;;22.00;81.50;;;;;;5060441;28;20453;-51
2021/09/14 06:37:30;;;;;;;7.43;4.90;;;22.10;80.50;;;;;;5026666;28;20405;-52
2021/09/14 06:39:56;;;;;;;8.15;5.57;;;22.50;79.90;;;;;;5018955;28;20039;-50
2021/09/14 06:42:24;;;;;;;8.77;4.72;;;22.70;79.50;;;;;;5030839;28;20377;-52
2021/09/14 06:44:49;;;;;;;10.48;5.47;;;22.80;78.50;;;;;;5055975;28;20025;-53
2021/09/14 06:47:15;;;;;;;8.43;5.28;;;22.80;78.30;;;;;;5029416;28;20035;-51
2021/09/14 06:49:41;;;;;;;8.15;4.63;;;22.90;78.30;;;;;;5066070;28;20064;-53
2021/09/14 06:52:07;;;;;;;9.48;5.60;;;22.90;77.80;;;;;;5009651;28;20040;-51
2021/09/14 06:54:33;;;;;;;7.25;5.63;;;23.10;78.30;;;;;;5066999;28;20139;-52
2021/09/14 06:56:58;;;;;;;13.18;6.00;;;23.20;77.90;;;;;;5060690;28;20540;-53
2021/09/14 06:59:24;;;;;;;8.90;5.97;;;23.20;77.70;;;;;;5062904;28;20119;-52
2021/09/14 07:01:50;;;;;;;12.25;5.97;;;23.20;77.90;;;;;;5031203;28;20097;-53
2021/09/14 07:04:16;;;;;;;14.68;4.88;;;23.20;78.20;;;;;;5071633;28;20031;-54
2021/09/14 07:06:41;;;;;;;12.57;5.70;;;23.40;77.30;;;;;;5066249;28;20028;-54
2021/09/14 07:09:08;;;;;;;11.43;5.95;;;23.50;76.80;;;;;;5026223;28;20052;-53
2021/09/14 07:11:34;;;;;;;16.92;6.40;;;23.40;76.60;;;;;;5065182;28;20419;-52
2021/09/14 07:14:00;;;;;;;15.70;6.47;;;23.60;76.80;;;;;;5064475;28;20025;-53
2021/09/14 07:16:26;;;;;;;14.43;6.15;;;23.70;76.70;;;;;;5061609;28;20033;-53
2021/09/14 07:18:51;;;;;;;13.07;5.45;;;23.80;76.20;;;;;;5041498;28;20032;-53
2021/09/14 07:21:18;;;;;;;16.33;5.55;;;23.90;76.00;;;;;;5066095;28;20042;-51
2021/09/14 07:23:43;;;;;;;12.80;5.80;;;24.00;76.00;;;;;;5061072;28;20024;-54
2021/09/14 07:26:09;;;;;;;7.72;4.93;;;24.10;76.00;;;;;;5062811;28;20385;-54
2021/09/14 07:28:35;;;;;;;13.77;5.30;;;24.20;75.30;;;;;;5063647;28;20033;-54
2021/09/14 07:31:01;;;;;;;8.68;4.90;;;24.30;75.50;;;;;;5065684;28;20037;-53
2021/09/14 07:33:27;;;;;;;6.72;4.28;;;24.50;76.10;;;;;;5043118;28;20047;-52
2021/09/14 07:35:53;;;;;;;7.32;4.80;;;24.80;75.20;;;;;;5059742;28;20045;-53
2021/09/14 07:38:18;;;;;;;14.80;4.88;;;25.00;74.20;;;;;;5056091;28;20033;-54
2021/09/14 07:40:45;;;;;;;8.27;4.80;;;25.10;74.30;;;;;;5044424;28;20090;-55
2021/09/14 07:43:11;;;;;;;7.65;4.72;;;25.30;74.00;;;;;;5066110;28;20035;-55
2021/09/14 07:45:37;;;;;;;7.13;4.93;;;25.40;73.40;;;;;;5002368;28;20124;-56
2021/09/14 07:48:03;;;;;;;8.88;5.22;;;25.40;73.80;;;;;;5064465;28;20068;-53
2021/09/14 07:50:29;;;;;;;8.15;4.88;;;25.70;74.00;;;;;;5060650;28;20393;-55
2021/09/14 07:52:54;;;;;;;8.65;4.97;;;25.60;72.90;;;;;;5063326;28;20407;-53
2021/09/14 07:55:21;;;;;;;8.23;4.85;;;25.70;73.40;;;;;;5031264;28;20037;-51
2021/09/14 07:57:47;;;;;;;8.98;4.85;;;25.80;73.20;;;;;;5065650;28;20079;-52
2021/09/14 08:00:13;;;;;;;8.38;5.22;;;25.90;73.10;;;;;;5064183;28;20047;-54
2021/09/14 08:02:39;;;;;;;6.90;4.68;;;26.10;72.90;;;;;;5027493;28;20036;-52
2021/09/14 08:05:07;;;;;;;9.15;4.82;;;26.50;73.00;;;;;;5000402;28;20415;-54
2021/09/14 08:07:33;;;;;;;8.02;4.70;;;26.60;85.40;;;;;;5062591;28;20025;-51
2021/09/14 08:09:59;;;;;;;12.73;4.90;;;26.70;73.20;;;;;;5062099;28;20128;-53
2021/09/14 08:12:25;;;;;;;6.03;4.35;;;26.90;72.40;;;;;;5026355;28;20127;-51
2021/09/14 08:14:51;;;;;;;5.25;3.95;;;27.30;74.00;;;;;;5036920;28;20044;-53
2021/09/14 08:17:16;;;;;;;8.45;5.10;;;27.30;70.90;;;;;;5063933;28;20040;-52
2021/09/14 08:19:43;;;;;;;10.60;5.05;;;27.40;70.60;;;;;;5014962;28;20036;-52
2021/09/14 08:22:10;;;;;;;8.68;4.70;;;27.60;70.90;;;;;;5068661;28;20548;-51
2021/09/14 08:24:36;;;;;;;6.18;4.35;;;28.10;70.90;;;;;;5048381;28;20123;-54
2021/09/14 08:27:02;;;;;;;7.20;4.40;;;27.90;69.90;;;;;;5068218;28;20370;-52
2021/09/14 08:29:28;;;;;;;7.88;4.70;;;28.20;70.10;;;;;;5007372;28;20037;-54
2021/09/14 08:31:54;;;;;;;8.73;5.10;;;28.30;69.90;;;;;;4973733;28;20114;-52
2021/09/14 08:34:20;;;;;;;11.23;5.65;;;28.60;69.60;;;;;;4973345;28;20158;-52
2021/09/14 08:36:46;;;;;;;8.15;4.70;;;29.10;95.70;;;;;;4972852;28;20498;-53
2021/09/14 08:39:12;;;;;;;5.63;4.20;;;;;;;;;;4973240;28;20053;-52
2021/09/14 08:41:38;;;;;;;8.00;4.80;;;29.00;96.40;;;;;;4973729;28;20022;-53
2021/09/14 08:44:05;;;;;;;8.98;4.50;;;;;;;;;;4956473;28;20069;-52
2021/09/14 08:46:34;;;;;;;10.13;5.05;;;;;;;;;;4972786;28;20042;-54
2021/09/14 08:49:00;;;;;;;7.30;3.97;;;29.50;95.60;;;;;;4924787;28;20144;-54
2021/09/14 08:51:26;;;;;;;6.75;4.55;;;;;;;;;;4972708;28;20076;-53
2021/09/14 08:53:53;;;;;;;6.13;4.70;;;;;;;;;;4972097;28;20042;-51
2021/09/14 08:56:19;;;;;;;5.10;4.45;;;;;;;;;;4971573;28;20419;-52
2021/09/14 08:58:55;;;;;;;5.75;4.00;;;;;;;;;;4971653;28;20037;-55
2021/09/14 09:01:22;;;;;;;6.28;3.90;;;;;;;;;;4999145;28;20242;-50
2021/09/14 09:03:55;;;;;;;6.13;4.13;;;;;;;;;;5001552;28;20482;-54
2021/09/14 09:06:29;;;;;;;6.85;4.20;;;;;;;;;;4980776;28;20093;-54
2021/09/14 09:09:06;;;;;;;7.93;3.90;;;;;;;;;;5021443;28;20047;-52
2021/09/14 09:11:32;;;;;;;5.05;3.63;;;;;;;;;;5065332;28;20017;-52
2021/09/14 09:13:58;;;;;;;6.75;4.85;;;;;;;;;;5031187;28;20045;-55
2021/09/14 09:16:25;;;;;;;9.30;4.68;;;;;;;;;;4995887;28;20053;-55
2021/09/14 09:18:53;;;;;;;6.32;4.00;;;32.10;74.40;;;;;;5066153;28;20543;-54
2021/09/14 09:21:26;;;;;;;8.15;4.28;;;;;;;;;;5066292;28;20040;-56
2021/09/14 09:24:00;;;;;;;10.90;3.88;;;;;;;;;;5067418;28;20024;-53
2021/09/14 09:26:33;;;;;;;6.03;4.47;;;;;;;;;;5064465;28;20029;-56
2021/09/14 09:29:03;;;;;;;4.78;3.20;;;;;;;;;;5058443;28;20032;-55
2021/09/14 09:31:28;;;;;;;5.15;3.50;;;33.90;60.30;;;;;;5069263;28;20024;-53
2021/09/14 09:34:02;;;;;;;5.38;3.47;;;;;;;;;;5064499;28;20502;-55
2021/09/14 09:36:37;;;;;;;6.30;4.15;;;34.40;57.80;;;;;;5064258;28;20040;-53
2021/09/14 09:39:07;;;;;;;9.20;3.63;;;34.60;57.80;;;;;;5058379;28;20095;-54
2021/09/14 09:41:34;;;;;;;6.30;4.27;;;34.70;57.20;;;;;;5026017;28;20055;-55
2021/09/14 09:44:12;;;;;;;4.32;3.30;;;34.90;57.90;;;;;;5063041;28;20032;-51
2021/09/14 09:46:38;;;;;;;4.78;3.78;;;34.30;56.90;;;;;;5063258;28;20052;-54
2021/09/14 09:49:06;;;;;;;5.28;3.67;;;;;;;;;;5024421;28;20060;-54
2021/09/14 09:51:33;;;;;;;8.38;3.50;;;35.10;56.80;;;;;;5065178;28;20031;-53
2021/09/14 09:54:00;;;;;;;5.95;3.80;;;35.20;56.90;;;;;;5014286;28;20041;-56
2021/09/14 09:56:28;;;;;;;6.05;3.90;;;35.70;56.20;;;;;;5063872;28;20123;-53
2021/09/14 09:58:54;;;;;;;7.75;3.83;;;35.80;57.00;;;;;;5066499;28;20067;-51
2021/09/14 10:01:22;;;;;;;5.88;3.70;;;;;;;;;;5058163;28;20048;-54
2021/09/14 10:04:10;;;;;;;7.57;4.25;;;36.10;56.50;;;;;;5058310;28;20025;-52
2021/09/14 10:06:40;;;;;;;11.38;3.70;;;35.00;55.50;;;;;;5058174;28;20025;-52
2021/09/14 10:09:06;;;;;;;7.15;4.00;;;35.40;56.40;;;;;;5064340;28;20035;-55
2021/09/14 10:11:36;;;;;;;6.55;3.95;;;35.90;59.50;;;;;;5013916;28;20373;-53
2021/09/14 10:14:13;;;;;;;5.78;4.20;;;36.10;61.40;;;;;;5021403;28;20124;-53
2021/09/14 10:16:45;;;;;;;6.35;3.50;;;36.10;55.70;;;;;;5062819;28;20045;-55
2021/09/14 10:19:41;;;;;;;5.82;3.88;;;36.40;55.30;;;;;;5065144;28;20502;-53
2021/09/14 10:22:10;;;;;;;9.40;5.00;;;36.70;55.70;;;;;;5062519;28;20679;-55
2021/09/14 10:24:36;;;;;;;5.10;3.42;;;36.20;53.90;;;;;;5021824;28;20040;-51
2021/09/14 10:27:11;;;;;;;7.78;4.38;;;36.30;55.40;;;;;;5022745;28;20034;-53
2021/09/14 10:29:38;;;;;;;4.50;3.70;;;36.40;55.90;;;;;;5020093;28;20128;-55
2021/09/14 10:32:12;;;;;;;7.80;3.63;;;36.80;55.30;;;;;;5020707;28;20045;-54
2021/09/14 10:34:50;;;;;;;5.55;3.42;;;37.00;55.30;;;;;;5014440;28;20057;-52
2021/09/14 10:37:17;;;;;;;21.83;3.97;;;37.30;62.30;;;;;;5015834;28;20037;-52
2021/09/14 10:39:44;;;;;;;5.90;3.35;;;37.50;53.20;;;;;;5016796;28;20045;-53
2021/09/14 10:42:13;;;;;;;6.40;4.05;;;37.40;52.60;;;;;;4993342;28;20046;-55
2021/09/14 10:44:40;;;;;;;5.90;3.85;;;37.50;53.00;;;;;;4993594;28;20048;-53
2021/09/14 10:47:15;;;;;;;5.05;3.30;;;37.50;52.80;;;;;;5022154;28;20057;-57
2021/09/14 10:49:49;;;;;;;6.15;3.85;;;36.40;52.40;;;;;;5017741;28;20048;-52
2021/09/14 10:52:17;;;;;;;6.53;3.92;;;37.00;55.40;;;;;;5013125;28;20115;-53
2021/09/14 10:54:48;;;;;;;13.95;4.85;;;37.30;53.00;;;;;;5028954;28;20036;-51
2021/09/14 10:57:14;;;;;;;6.57;3.70;;;36.70;53.60;;;;;;4968504;28;20553;-55
2021/09/14 10:59:50;;;;;;;6.18;4.00;;;36.80;54.00;;;;;;5006954;28;20307;-57
2021/09/14 11:02:16;;;;;;;3.97;3.58;;;36.90;55.50;;;;;;4969228;28;20041;-54
2021/09/14 11:04:43;;;;;;;4.63;3.80;;;37.30;54.20;;;;;;4993474;28;20085;-55
2021/09/14 11:07:12;;;;;;;6.70;3.90;;;;;;;;;;4999601;28;20061;-55
2021/09/14 11:09:39;;;;;;;4.78;3.38;;;37.30;52.00;;;;;;5005251;28;20563;-53
2021/09/14 11:12:05;;;;;;;5.32;3.80;;;37.60;52.20;;;;;;5002964;28;20104;-53
2021/09/14 11:14:36;;;;;;;4.63;3.63;;;37.70;53.90;;;;;;5001071;28;20037;-54
2021/09/14 11:17:02;;;;;;;4.93;3.58;;;37.70;51.70;;;;;;5003011;28;20132;-53
2021/09/14 11:19:28;;;;;;;4.72;3.85;;;37.60;51.60;;;;;;4976425;28;20514;-54
2021/09/14 11:21:54;;;;;;;4.70;3.78;;;37.70;52.20;;;;;;4967281;28;20050;-51
2021/09/14 11:24:21;;;;;;;4.88;4.07;;;37.50;53.00;;;;;;5000632;28;20038;-55
2021/09/14 11:26:47;;;;;;;8.25;3.78;;;37.40;52.50;;;;;;5003988;28;20466;-55
2021/09/14 11:29:13;;;;;;;5.00;3.78;;;37.10;51.60;;;;;;5053931;28;20095;-53
2021/09/14 11:31:39;;;;;;;3.78;3.47;;;36.70;51.70;;;;;;5063228;28;20040;-55
2021/09/14 11:34:06;;;;;;;5.60;3.63;;;36.20;52.70;;;;;;5066476;28;20536;-52
2021/09/14 11:36:32;;;;;;;7.45;3.67;;;36.50;53.20;;;;;;5062938;28;20060;-54
2021/09/14 11:38:59;;;;;;;5.93;3.78;;;36.90;52.40;;;;;;5067264;28;20044;-58
2021/09/14 11:41:33;;;;;;;5.30;3.25;;;36.50;51.90;;;;;;5067388;28;20024;-56
2021/09/14 11:43:59;;;;;;;7.57;3.85;;;36.20;51.50;;;;;;5050873;28;20071;-52
2021/09/14 11:46:25;;;;;;;6.90;3.55;;;35.80;51.90;;;;;;4923848;28;20073;-56
2021/09/14 11:48:58;;;;;;;5.13;3.88;;;35.90;53.60;;;;;;5003043;28;20154;-56
2021/09/14 11:51:36;;;;;;;9.68;4.35;;;36.10;53.40;;;;;;5005116;28;20924;-56
2021/09/14 11:54:02;;;;;;;6.20;3.88;;;35.90;53.50;;;;;;5010588;28;20053;-56
2021/09/14 11:56:28;;;;;;;5.70;3.47;;;36.10;53.80;;;;;;4977296;28;20046;-54
2021/09/14 11:58:55;;;;;;;4.65;3.58;;;;;;;;;;5005819;28;20046;-53
2021/09/14 12:01:28;;;;;;;5.57;3.55;;;35.10;53.10;;;;;;5006424;28;20046;-57
2021/09/14 12:03:57;;;;;;;4.38;3.78;;;;;;;;;;5000054;28;20087;-55
2021/09/14 12:06:30;;;;;;;4.43;3.95;;;;;;;;;;4999259;28;20041;-57
2021/09/14 12:08:57;;;;;;;4.78;3.83;;;;;;;;;;4993412;28;20072;-54
2021/09/14 12:11:27;;;;;;;4.45;3.35;;;;;;;;;;5003023;28;20039;-52
2021/09/14 12:13:57;;;;;;;6.35;3.28;;;;;;;;;;5003206;28;20121;-50
2021/09/14 12:16:27;;;;;;;6.40;3.78;;;;;;;;;;5003786;28;20038;-50
2021/09/14 12:18:53;;;;;;;5.80;3.70;;;35.90;51.90;;;;;;4999577;28;20045;-52
2021/09/14 12:21:18;;;;;;;9.20;3.80;;;35.80;53.20;;;;;;4998850;28;20367;-53
2021/09/14 12:23:44;;;;;;;5.45;3.13;;;36.00;51.60;;;;;;5040455;28;20089;-52
2021/09/14 12:26:24;;;;;;;6.93;3.45;;;36.30;52.50;;;;;;5048398;28;20043;-53
2021/09/14 12:28:53;;;;;;;4.93;3.33;;;36.30;51.30;;;;;;5076238;28;20027;-47
2021/09/14 12:31:19;;;;;;;4.95;3.30;;;36.30;51.00;;;;;;5062925;28;20024;-53
2021/09/14 12:33:46;;;;;;;5.20;3.45;;;36.40;52.30;;;;;;5061083;28;20029;-48
2021/09/14 12:36:12;;;;;;;4.38;3.45;;;36.30;51.50;;;;;;5069931;28;20461;-50
2021/09/14 12:38:38;;;;;;;4.63;3.38;;;36.50;52.50;;;;;;5035334;28;20053;-47
2021/09/14 12:41:05;;;;;;;5.50;4.43;;;36.60;51.40;;;;;;5027730;28;20057;-49
2021/09/14 12:43:31;;;;;;;6.20;3.30;;;36.70;51.50;;;;;;5069011;28;20024;-46
2021/09/14 12:45:58;;;;;;;4.93;3.35;;;36.30;51.10;;;;;;5064245;28;20369;-50
2021/09/14 12:48:24;;;;;;;5.43;3.22;;;36.50;52.10;;;;;;5060550;28;20040;-49
2021/09/14 12:50:50;;;;;;;3.38;3.08;;;36.30;51.90;;;;;;5027326;28;20388;-54
2021/09/14 12:53:15;;;;;;;5.63;3.38;;;35.80;52.10;;;;;;5063970;28;20469;-50
2021/09/14 12:55:41;;;;;;;4.60;3.05;;;36.20;52.00;;;;;;5050667;28;20047;-49
2021/09/14 12:58:07;;;;;;;10.38;3.28;;;36.40;52.10;;;;;;5055117;28;20568;-50
2021/09/14 13:00:35;;;;;;;6.65;3.53;;;36.60;50.90;;;;;;5094275;28;20032;-51
2021/09/14 13:03:01;;;;;;;6.03;3.50;;;36.70;50.70;;;;;;5059707;28;20114;-51
2021/09/14 13:05:28;;;;;;;5.07;3.40;;;36.60;50.80;;;;;;5092207;28;20036;-50
2021/09/14 13:07:54;;;;;;;4.10;3.17;;;36.50;50.80;;;;;;5095303;28;20479;-51
2021/09/14 13:10:20;;;;;;;5.40;3.50;;;35.70;51.20;;;;;;5095249;28;20480;-51
2021/09/14 13:12:48;;;;;;;4.90;3.45;;;36.10;51.40;;;;;;5059514;28;20508;-49
2021/09/14 13:17:59;;;;;;;7.47;3.72;;;36.10;51.30;;;;;;5095484;28;20042;-50
2021/09/14 13:20:27;;;;;;;7.80;3.60;;;36.20;52.00;;;;;;5094509;28;20039;-49
2021/09/14 13:22:53;;;;;;;4.63;3.50;;;36.00;52.00;;;;;;5086673;28;20044;-50
2021/09/14 13:25:19;;;;;;;3.85;3.25;;;;;;;;;;5049157;28;20124;-50
2021/09/14 13:27:45;;;;;;;5.53;3.33;;;35.20;51.70;;;;;;5047890;28;20040;-49
2021/09/14 13:30:11;;;;;;;5.50;3.50;;;34.90;53.00;;;;;;5061403;28;20029;-49
2021/09/14 13:32:37;;;;;;;8.40;3.75;;;34.50;53.20;;;;;;5028977;28;20067;-51
2021/09/14 13:35:03;;;;;;;6.15;3.40;;;34.90;54.60;;;;;;5095043;28;20028;-51
2021/09/14 13:37:29;;;;;;;7.72;3.72;;;34.90;53.90;;;;;;5037646;28;20049;-51
2021/09/14 13:39:55;;;;;;;4.50;3.72;;;34.70;53.60;;;;;;5062999;28;20318;-51
2021/09/14 13:42:25;;;;;;;7.75;4.10;;;;;;;;;;5063880;28;20033;-50
2021/09/14 13:47:20;;;;;;;10.25;4.10;;;34.10;53.60;;;;;;5062629;28;20511;-49
2021/09/14 13:49:46;;;;;;;5.57;3.90;;;33.80;53.80;;;;;;5073528;28;20035;-50
2021/09/14 13:52:12;;;;;;;6.40;3.88;;;33.90;54.50;;;;;;5083890;28;20120;-49
2021/09/14 13:54:39;;;;;;;5.47;4.00;;;34.00;53.60;;;;;;5046978;28;20037;-49
2021/09/14 13:57:05;;;;;;;5.93;4.20;;;34.10;54.60;;;;;;5022499;28;20062;-50
2021/09/14 13:59:31;;;;;;;7.68;4.00;;;;;;;;;;5024539;28;20040;-51